SMA weather

Santa Maria Airport
Vila do Porto, Autonomous Region of Azores, Portugal

Public forecast

Using degrees Celsius for public forecast. Weather courtesy of forecast.io.

Current aviation weather report (METAR) for Santa Maria Airport

Retrieved 2020/06/04 04:00 UTC (31 minutes ago):

LPAZ 040400Z 02011KT 9999 FEW011 SCT025 17/15 Q1011

Aviation forecast (TAF) for Santa Maria Airport

Retrieved 2020-06-04 00:18 UTC (4 hours ago):

TAF LPAZ 032300Z 0400/0506 03012KT 9999 SCT012 SCT035 TEMPO 0400/0506 8000 SHRA SCT006 BKN012 FEW020CB